createdAt,value
2022-10-19T00:01:23.216Z,7.20
2022-10-19T00:03:54.771Z,3.22
2022-10-19T00:06:26.628Z,3.35
2022-10-19T00:08:56.629Z,4.75
2022-10-19T00:11:25.754Z,3.65
2022-10-19T00:16:26.162Z,3.92
2022-10-19T00:18:57.786Z,3.50
2022-10-19T00:21:26.699Z,3.05
2022-10-19T00:23:55.107Z,3.88
2022-10-19T00:26:23.766Z,3.75
2022-10-19T00:28:54.639Z,4.78
2022-10-19T00:31:25.253Z,3.35
2022-10-19T00:33:54.470Z,3.70
2022-10-19T00:38:52.588Z,4.03
2022-10-19T00:41:22.395Z,3.97
2022-10-19T00:44:02.362Z,3.50
2022-10-19T00:46:34.995Z,2.65
2022-10-19T00:49:10.015Z,3.35
2022-10-19T00:51:43.496Z,3.28
2022-10-19T00:54:13.323Z,3.05
2022-10-19T00:56:44.293Z,3.55
2022-10-19T00:59:16.167Z,4.35
2022-10-19T01:01:47.310Z,5.28
2022-10-19T01:04:16.233Z,4.60
2022-10-19T01:06:44.871Z,4.43
2022-10-19T01:09:13.366Z,3.95
2022-10-19T01:11:52.961Z,2.95
2022-10-19T01:14:37.274Z,3.80
2022-10-19T01:17:16.142Z,3.40
2022-10-19T01:20:05.319Z,2.78
2022-10-19T01:22:57.708Z,3.35
2022-10-19T01:25:40.271Z,3.83
2022-10-19T01:28:26.619Z,3.83
2022-10-19T01:31:03.177Z,2.88
2022-10-19T01:33:44.629Z,3.58
2022-10-19T01:36:22.939Z,2.78
2022-10-19T01:38:59.916Z,2.27
2022-10-19T01:41:37.054Z,3.47
2022-10-19T01:44:15.051Z,3.58
2022-10-19T01:46:48.592Z,2.65
2022-10-19T01:49:21.096Z,2.85
2022-10-19T01:51:55.923Z,2.35
2022-10-19T01:54:27.691Z,3.03
2022-10-19T01:57:00.004Z,3.65
2022-10-19T01:59:28.986Z,5.88
2022-10-19T02:01:59.296Z,3.00
2022-10-19T02:04:28.093Z,3.95
2022-10-19T02:06:57.112Z,2.38
2022-10-19T02:09:25.542Z,3.65
2022-10-19T02:11:58.064Z,4.38
2022-10-19T02:14:31.350Z,3.58
2022-10-19T02:17:04.270Z,3.35
2022-10-19T02:19:33.813Z,4.65
2022-10-19T02:22:02.675Z,2.38
2022-10-19T02:24:31.079Z,2.15
2022-10-19T02:27:00.692Z,2.67
2022-10-19T02:29:29.839Z,2.83
2022-10-19T02:34:28.432Z,1.92
2022-10-19T02:36:57.208Z,2.45
2022-10-19T02:39:26.031Z,1.95
2022-10-19T02:41:59.682Z,2.63
2022-10-19T02:44:32.537Z,3.20
2022-10-19T02:47:07.731Z,1.88
2022-10-19T02:49:39.357Z,5.05
2022-10-19T02:52:09.982Z,2.85
2022-10-19T02:54:39.527Z,5.18
2022-10-19T02:57:17.446Z,1.67
2022-10-19T02:59:46.011Z,3.45
2022-10-19T03:02:14.903Z,1.73
2022-10-19T03:04:45.359Z,2.72
2022-10-19T03:07:16.130Z,2.38
2022-10-19T03:09:45.199Z,2.45
2022-10-19T03:12:14.174Z,2.58
2022-10-19T03:14:43.021Z,2.53
2022-10-19T03:17:12.022Z,4.72
2022-10-19T03:22:10.940Z,1.83
2022-10-19T03:24:39.402Z,2.97
2022-10-19T03:27:07.801Z,1.80
2022-10-19T03:29:36.224Z,3.28
2022-10-19T03:32:04.729Z,3.92
2022-10-19T03:34:33.086Z,2.00
2022-10-19T03:37:01.544Z,1.50
2022-10-19T03:39:31.317Z,4.85
2022-10-19T03:41:59.787Z,2.13
2022-10-19T03:44:28.236Z,1.45
2022-10-19T03:46:56.758Z,1.35
2022-10-19T03:49:25.188Z,2.85
2022-10-19T03:51:53.626Z,1.67
2022-10-19T03:54:25.013Z,6.65
2022-10-19T03:56:57.175Z,3.75
2022-10-19T03:59:25.635Z,3.78
2022-10-19T04:01:54.116Z,10.40
2022-10-19T04:04:22.582Z,2.05
2022-10-19T04:06:53.999Z,4.93
2022-10-19T04:09:24.219Z,5.53
2022-10-19T04:11:52.944Z,4.28
2022-10-19T04:14:32.721Z,6.63
2022-10-19T04:17:02.242Z,7.90
2022-10-19T04:19:30.774Z,7.47
2022-10-19T04:21:59.594Z,5.82
2022-10-19T04:24:28.146Z,9.18
2022-10-19T04:26:57.630Z,4.97
2022-10-19T04:29:29.764Z,13.48
2022-10-19T04:31:59.824Z,6.70
2022-10-19T04:34:28.362Z,3.72
2022-10-19T04:36:59.588Z,7.93
2022-10-19T04:39:28.335Z,6.57
2022-10-19T04:41:56.704Z,4.00
2022-10-19T04:44:25.323Z,6.63
2022-10-19T04:46:55.064Z,8.40
2022-10-19T04:49:23.542Z,4.53
2022-10-19T04:51:52.128Z,4.93
2022-10-19T04:54:20.545Z,6.60
2022-10-19T04:56:48.922Z,7.35
2022-10-19T04:59:17.710Z,3.20
2022-10-19T05:01:47.298Z,7.07
2022-10-19T05:04:17.318Z,3.55
2022-10-19T05:06:45.733Z,2.90
2022-10-19T05:09:14.249Z,3.83
2022-10-19T05:11:42.645Z,4.20
2022-10-19T05:14:11.086Z,6.30
2022-10-19T05:16:39.498Z,5.93
2022-10-19T05:19:07.981Z,4.22
2022-10-19T05:21:37.842Z,5.55
2022-10-19T05:24:06.618Z,6.15
2022-10-19T05:26:35.065Z,6.60
2022-10-19T05:29:04.685Z,2.90
2022-10-19T05:31:35.270Z,4.90
2022-10-19T05:34:05.118Z,3.17
2022-10-19T05:36:34.882Z,3.72
2022-10-19T05:39:07.584Z,4.65
2022-10-19T05:41:36.475Z,4.97
2022-10-19T05:44:06.096Z,3.53
2022-10-19T05:46:35.237Z,8.63
2022-10-19T05:49:03.630Z,2.80
2022-10-19T05:51:32.760Z,2.47
2022-10-19T05:54:01.189Z,5.38
2022-10-19T05:56:32.394Z,21.02
2022-10-19T05:59:03.025Z,6.78
2022-10-19T06:01:32.751Z,5.07
2022-10-19T06:04:02.181Z,4.15
2022-10-19T06:06:32.109Z,5.75
2022-10-19T06:09:01.435Z,7.65
2022-10-19T06:11:34.053Z,5.47
2022-10-19T06:14:04.246Z,3.60
2022-10-19T06:16:33.784Z,6.28
2022-10-19T06:19:02.558Z,3.35
2022-10-19T06:21:32.548Z,6.00
2022-10-19T06:24:02.977Z,11.85
2022-10-19T06:26:34.747Z,3.55
2022-10-19T06:29:04.260Z,6.07
2022-10-19T06:31:34.731Z,4.50
2022-10-19T06:34:03.431Z,4.85
2022-10-19T06:36:33.142Z,2.58
2022-10-19T06:39:02.878Z,6.10
2022-10-19T06:41:34.321Z,3.78
2022-10-19T06:44:19.471Z,5.22
2022-10-19T06:46:48.049Z,5.72
2022-10-19T06:49:16.413Z,5.97
2022-10-19T06:51:44.899Z,9.98
2022-10-19T06:54:13.288Z,3.17
2022-10-19T06:56:43.234Z,4.35
2022-10-19T06:59:14.780Z,7.80
2022-10-19T07:01:43.553Z,3.42
2022-10-19T07:04:11.935Z,3.03
2022-10-19T07:06:40.611Z,5.68
2022-10-19T07:09:09.064Z,5.05
2022-10-19T07:11:37.906Z,5.93
2022-10-19T07:14:08.700Z,5.70
2022-10-19T07:16:37.192Z,5.95
2022-10-19T07:19:05.586Z,4.65
2022-10-19T07:21:36.008Z,5.10
2022-10-19T07:24:04.680Z,3.45
2022-10-19T07:26:33.869Z,6.25
2022-10-19T07:34:03.923Z,4.80
2022-10-19T07:36:34.916Z,3.08
2022-10-19T07:39:05.513Z,10.80
2022-10-19T07:41:34.802Z,10.80
2022-10-19T07:44:03.489Z,3.35
2022-10-19T07:46:33.982Z,7.40
2022-10-19T07:49:03.224Z,38.35
2022-10-19T07:51:31.704Z,7.25
2022-10-19T07:54:00.986Z,8.65
2022-10-19T07:56:30.021Z,7.22
2022-10-19T07:58:59.860Z,4.07
2022-10-19T08:01:29.998Z,10.98
2022-10-19T08:06:50.475Z,4.93
2022-10-19T08:09:47.187Z,3.85
2022-10-19T08:12:12.345Z,7.90
2022-10-19T08:14:43.177Z,7.40
2022-10-19T08:17:16.809Z,5.32
2022-10-19T08:19:47.254Z,7.53
2022-10-19T08:22:15.734Z,6.07
2022-10-19T08:24:44.173Z,7.10
2022-10-19T08:27:12.653Z,7.25
2022-10-19T08:29:41.141Z,4.15
2022-10-19T08:32:12.055Z,3.55
2022-10-19T08:34:40.663Z,4.90
2022-10-19T08:37:20.223Z,3.03
2022-10-19T08:39:54.644Z,3.90
2022-10-19T08:42:30.067Z,4.13
2022-10-19T08:45:28.505Z,4.75
2022-10-19T08:48:21.731Z,3.88
2022-10-19T08:50:50.689Z,5.45
2022-10-19T08:53:28.561Z,3.17
2022-10-19T08:56:15.039Z,5.45
2022-10-19T08:59:01.322Z,3.05
2022-10-19T09:01:38.552Z,4.68
2022-10-19T09:04:11.566Z,4.93
2022-10-19T09:06:50.947Z,4.43
2022-10-19T09:09:22.309Z,4.07
2022-10-19T09:11:52.449Z,4.65
2022-10-19T09:14:27.277Z,5.10
2022-10-19T09:16:58.854Z,5.85
2022-10-19T09:19:31.817Z,3.08
2022-10-19T09:22:05.751Z,2.58
2022-10-19T09:24:43.966Z,3.95
2022-10-19T09:27:21.365Z,2.57
2022-10-19T09:29:52.438Z,4.15
2022-10-19T09:32:24.074Z,6.50
2022-10-19T09:34:55.579Z,3.40
2022-10-19T09:37:26.761Z,3.35
2022-10-19T09:39:57.585Z,6.32
2022-10-19T09:42:29.544Z,4.30
2022-10-19T09:44:59.684Z,3.45
2022-10-19T09:47:35.033Z,3.00
2022-10-19T09:50:17.436Z,4.80
2022-10-19T09:52:47.330Z,4.78
2022-10-19T09:55:28.074Z,3.80
2022-10-19T09:58:03.664Z,4.45
2022-10-19T10:00:42.403Z,2.95
2022-10-19T10:03:24.792Z,3.47
2022-10-19T10:05:54.288Z,3.85
2022-10-19T10:08:25.920Z,3.40
2022-10-19T10:11:07.064Z,3.88
2022-10-19T10:13:39.963Z,2.67
2022-10-19T10:16:10.803Z,3.38
2022-10-19T10:18:52.367Z,2.08
2022-10-19T10:21:25.706Z,2.95
2022-10-19T10:24:05.863Z,2.97
2022-10-19T10:26:40.508Z,3.17
2022-10-19T10:29:20.346Z,3.35
2022-10-19T10:31:52.629Z,4.78
2022-10-19T10:34:45.677Z,3.05
2022-10-19T10:37:22.111Z,6.07
2022-10-19T10:39:55.111Z,3.25
2022-10-19T10:43:06.427Z,3.70
2022-10-19T10:46:09.961Z,4.50
2022-10-19T10:48:42.329Z,5.43
2022-10-19T10:51:21.792Z,4.07
2022-10-19T10:53:50.561Z,3.67
2022-10-19T10:56:25.625Z,4.05
2022-10-19T10:59:00.364Z,3.70
2022-10-19T11:01:38.195Z,4.65
2022-10-19T11:04:11.466Z,5.07
2022-10-19T11:06:45.751Z,5.15
2022-10-19T11:09:25.110Z,5.82
2022-10-19T11:11:56.298Z,6.88
2022-10-19T11:14:34.272Z,5.10
2022-10-19T11:17:08.535Z,4.72
2022-10-19T11:19:42.238Z,5.72
2022-10-19T11:22:23.583Z,4.13
2022-10-19T11:25:06.838Z,4.88
2022-10-19T11:27:48.154Z,5.00
2022-10-19T11:30:20.001Z,4.38
2022-10-19T11:33:02.962Z,5.25
2022-10-19T11:35:41.252Z,6.90
2022-10-19T11:38:32.651Z,4.90
2022-10-19T11:41:17.831Z,3.55
2022-10-19T11:44:04.176Z,9.57
2022-10-19T11:46:40.301Z,7.97
2022-10-19T11:49:26.383Z,6.38
2022-10-19T11:52:00.358Z,3.97
2022-10-19T11:54:42.654Z,5.20
2022-10-19T11:57:14.700Z,4.35
2022-10-19T12:00:14.405Z,4.03
2022-10-19T12:03:10.265Z,4.80
2022-10-19T12:05:54.155Z,4.57
2022-10-19T12:08:33.989Z,4.75
2022-10-19T12:11:12.440Z,6.20
2022-10-19T12:13:43.797Z,4.40
2022-10-19T12:16:15.430Z,8.57
2022-10-19T12:18:48.952Z,8.15
2022-10-19T12:21:27.727Z,7.15
2022-10-19T12:23:57.519Z,4.55
2022-10-19T12:26:29.315Z,5.28
2022-10-19T12:29:01.775Z,4.80
2022-10-19T12:31:31.855Z,6.22
2022-10-19T12:34:06.780Z,7.47
2022-10-19T12:36:46.245Z,7.85
2022-10-19T12:39:22.644Z,5.13
2022-10-19T12:41:58.449Z,5.88
2022-10-19T12:44:58.739Z,5.53
2022-10-19T12:47:27.981Z,5.93
2022-10-19T12:49:56.892Z,4.90
2022-10-19T12:52:42.210Z,5.70
2022-10-19T12:55:27.042Z,6.15
2022-10-19T12:58:02.347Z,5.03
2022-10-19T13:00:33.722Z,4.57
2022-10-19T13:03:08.806Z,4.80
2022-10-19T13:05:37.986Z,4.93
2022-10-19T13:10:42.417Z,8.02
2022-10-19T13:13:46.438Z,6.00
2022-10-19T13:16:54.385Z,7.93
2022-10-19T13:19:23.852Z,5.22
2022-10-19T13:22:14.578Z,4.30
2022-10-19T13:24:44.481Z,7.75
2022-10-19T13:27:43.294Z,5.55
2022-10-19T13:30:45.059Z,4.68
2022-10-19T13:33:49.116Z,5.38
2022-10-19T13:36:18.796Z,5.38
2022-10-19T13:38:49.583Z,4.65
2022-10-19T13:41:22.806Z,5.15
2022-10-19T13:44:04.508Z,5.07
2022-10-19T13:46:59.044Z,4.75
2022-10-19T13:50:16.211Z,6.22
2022-10-19T13:53:06.991Z,6.25
2022-10-19T13:55:59.655Z,5.10
2022-10-19T13:59:15.710Z,6.70
2022-10-19T14:02:14.461Z,5.68
2022-10-19T14:04:52.403Z,6.63
2022-10-19T14:07:29.265Z,4.85
2022-10-19T14:10:09.260Z,4.30
2022-10-19T14:12:43.495Z,5.57
2022-10-19T14:15:30.917Z,5.15
2022-10-19T14:18:05.788Z,7.07
2022-10-19T14:20:37.092Z,5.35
2022-10-19T14:23:20.303Z,4.00
2022-10-19T14:25:53.888Z,3.17
2022-10-19T14:28:24.881Z,5.25
2022-10-19T14:30:58.416Z,5.07
2022-10-19T14:33:29.712Z,4.25
2022-10-19T14:35:58.484Z,3.70
2022-10-19T14:38:33.147Z,6.32
2022-10-19T14:41:01.786Z,6.70
2022-10-19T14:43:32.396Z,7.57
2022-10-19T14:46:16.013Z,5.35
2022-10-19T14:48:48.637Z,3.50
2022-10-19T14:51:26.841Z,7.28
2022-10-19T14:53:58.645Z,5.20
2022-10-19T14:56:34.885Z,4.65
2022-10-19T14:59:07.404Z,3.88
2022-10-19T15:01:37.319Z,7.35
2022-10-19T15:04:07.277Z,9.43
2022-10-19T15:06:42.593Z,6.90
2022-10-19T15:09:37.056Z,16.45
2022-10-19T15:12:18.109Z,39.88
2022-10-19T15:14:47.491Z,39.67
2022-10-19T15:17:30.973Z,45.47
2022-10-19T15:20:01.805Z,54.47
2022-10-19T15:22:40.952Z,59.08
2022-10-19T15:25:37.234Z,57.72
2022-10-19T15:28:34.940Z,53.28
2022-10-19T15:31:08.036Z,46.97
2022-10-19T15:33:45.787Z,53.15
2022-10-19T15:36:18.589Z,50.10
2022-10-19T15:38:49.123Z,55.05
2022-10-19T15:41:21.013Z,38.97
2022-10-19T15:43:54.117Z,47.38
2022-10-19T15:46:32.463Z,42.83
2022-10-19T15:49:04.587Z,35.15
2022-10-19T15:51:42.128Z,33.85
2022-10-19T15:54:10.838Z,30.88
2022-10-19T15:56:41.132Z,30.40
2022-10-19T15:59:14.870Z,32.85
2022-10-19T16:01:44.085Z,30.35
2022-10-19T16:04:12.991Z,27.38
2022-10-19T16:06:44.989Z,25.13
2022-10-19T16:09:20.184Z,27.58
2022-10-19T16:11:49.232Z,24.80
2022-10-19T16:16:51.490Z,25.13
2022-10-19T16:19:19.992Z,26.98
2022-10-19T16:21:50.509Z,26.23
2022-10-19T16:24:19.066Z,21.02
2022-10-19T16:26:47.703Z,24.58
2022-10-19T16:29:16.059Z,26.35
2022-10-19T16:31:44.606Z,24.85
2022-10-19T16:34:13.187Z,22.48
2022-10-19T16:36:41.718Z,22.30
2022-10-19T16:39:11.772Z,26.60
2022-10-19T16:41:40.640Z,22.52
2022-10-19T16:44:12.801Z,18.63
2022-10-19T16:46:41.602Z,20.75
2022-10-19T16:49:10.074Z,16.42
2022-10-19T16:51:39.715Z,19.02
2022-10-19T16:54:10.942Z,21.48
2022-10-19T16:56:44.829Z,19.42
2022-10-19T16:59:15.890Z,18.38
2022-10-19T17:01:45.676Z,17.15
2022-10-19T17:04:17.377Z,18.83
2022-10-19T17:06:46.264Z,15.85
2022-10-19T17:09:40.395Z,15.43
2022-10-19T17:12:05.914Z,16.75
2022-10-19T17:14:35.176Z,17.40
2022-10-19T17:19:32.045Z,17.55
2022-10-19T17:22:02.082Z,13.55
2022-10-19T17:24:31.180Z,15.65
2022-10-19T17:27:03.272Z,11.45
2022-10-19T17:29:33.269Z,13.98
2022-10-19T17:32:01.994Z,15.90
2022-10-19T17:34:30.819Z,15.48
2022-10-19T17:36:59.407Z,13.68
2022-10-19T17:39:29.954Z,12.98
2022-10-19T17:42:02.202Z,13.75
2022-10-19T17:44:32.776Z,13.43
2022-10-19T17:47:02.226Z,11.48
2022-10-19T17:49:30.957Z,16.30
2022-10-19T17:51:59.871Z,14.10
2022-10-19T17:54:28.655Z,11.10
2022-10-19T17:56:57.255Z,9.88
2022-10-19T17:59:30.526Z,12.60
2022-10-19T18:02:07.628Z,10.50
2022-10-19T18:07:09.765Z,15.40
2022-10-19T18:09:38.246Z,16.65
2022-10-19T18:12:08.752Z,10.70
2022-10-19T18:14:37.332Z,11.63
2022-10-19T18:17:07.722Z,13.55
2022-10-19T18:19:36.222Z,13.27
2022-10-19T18:22:04.994Z,11.32
2022-10-19T18:24:34.769Z,13.15
2022-10-19T18:27:03.386Z,13.43
2022-10-19T18:29:31.924Z,15.60
2022-10-19T18:32:01.744Z,13.55
2022-10-19T18:34:31.788Z,16.33
2022-10-19T18:37:00.584Z,13.75
2022-10-19T18:39:29.078Z,10.63
2022-10-19T18:41:57.706Z,11.60
2022-10-19T18:44:27.889Z,20.50
2022-10-19T18:46:57.957Z,19.90
2022-10-19T18:51:56.307Z,17.27
2022-10-19T18:54:26.482Z,21.65
2022-10-19T18:56:55.528Z,27.17
2022-10-19T18:59:24.495Z,24.23
2022-10-19T19:01:53.047Z,19.92
2022-10-19T19:04:21.530Z,31.10
2022-10-19T19:06:50.188Z,27.92
2022-10-19T19:09:21.281Z,27.85
2022-10-19T19:11:50.239Z,28.08
2022-10-19T19:14:21.674Z,32.03
2022-10-19T19:16:50.302Z,22.17
2022-10-19T19:21:49.982Z,27.15
2022-10-19T19:24:21.934Z,26.75
2022-10-19T19:26:52.956Z,25.10
2022-10-19T19:29:22.432Z,21.70
2022-10-19T19:31:51.224Z,19.70
2022-10-19T19:34:19.754Z,20.85
2022-10-19T19:36:48.908Z,34.03
2022-10-19T19:39:21.254Z,25.45
2022-10-19T19:41:50.456Z,21.17
2022-10-19T19:44:20.129Z,20.23
2022-10-19T19:46:48.667Z,16.60
2022-10-19T19:49:17.197Z,18.80
2022-10-19T19:51:45.588Z,21.10
2022-10-19T19:54:14.063Z,18.88
2022-10-19T19:56:43.922Z,17.90
2022-10-19T19:59:13.912Z,21.20
2022-10-19T20:01:43.057Z,20.52
2022-10-19T20:04:11.519Z,15.88
2022-10-19T20:06:41.058Z,17.65
2022-10-19T20:09:10.857Z,17.55
2022-10-19T20:11:42.317Z,14.57
2022-10-19T20:14:13.911Z,12.57
2022-10-19T20:16:42.512Z,13.68
2022-10-19T20:19:13.176Z,13.27
2022-10-19T20:21:42.292Z,14.70
2022-10-19T20:24:11.402Z,12.38
2022-10-19T20:26:40.048Z,11.88
2022-10-19T20:29:08.692Z,17.70
2022-10-19T20:31:40.648Z,14.20
2022-10-19T20:34:11.190Z,15.38
2022-10-19T20:36:39.990Z,11.25
2022-10-19T20:39:08.505Z,42.92
2022-10-19T20:41:37.258Z,12.95
2022-10-19T20:44:05.997Z,15.27
2022-10-19T20:46:34.427Z,14.50
2022-10-19T20:49:04.884Z,11.15
2022-10-19T20:51:36.684Z,12.23
2022-10-19T20:54:07.194Z,12.48
2022-10-19T20:56:37.647Z,11.10
2022-10-19T20:59:07.934Z,11.25
2022-10-19T21:01:37.854Z,10.32
2022-10-19T21:04:09.311Z,10.55
2022-10-19T21:06:41.301Z,10.57
2022-10-19T21:09:10.807Z,6.18
2022-10-19T21:11:41.458Z,10.20
2022-10-19T21:14:13.163Z,7.65
2022-10-19T21:16:42.370Z,9.35
2022-10-19T21:21:44.472Z,9.55
2022-10-19T21:24:14.616Z,9.45
2022-10-19T21:26:43.934Z,9.15
2022-10-19T21:29:14.271Z,10.02
2022-10-19T21:31:47.878Z,12.95
2022-10-19T21:34:21.163Z,11.10
2022-10-19T21:36:49.977Z,8.15
2022-10-19T21:39:18.648Z,7.07
2022-10-19T21:41:47.755Z,14.40
2022-10-19T21:44:18.381Z,6.72
2022-10-19T21:46:49.218Z,10.55
2022-10-19T21:49:19.369Z,10.70
2022-10-19T21:51:49.940Z,7.07
2022-10-19T21:54:21.480Z,7.30
2022-10-19T21:56:50.360Z,9.45
2022-10-19T21:59:19.632Z,9.55
2022-10-19T22:01:48.346Z,9.25
2022-10-19T22:04:19.433Z,8.23
2022-10-19T22:06:48.294Z,11.80
2022-10-19T22:09:19.283Z,7.03
2022-10-19T22:11:48.496Z,12.82
2022-10-19T22:16:45.972Z,8.93
2022-10-19T22:19:14.579Z,8.00
2022-10-19T22:21:44.566Z,8.35
2022-10-19T22:24:16.129Z,7.00
2022-10-19T22:26:46.438Z,6.90
2022-10-19T22:29:14.884Z,8.27
2022-10-19T22:31:43.673Z,7.22
2022-10-19T22:34:15.052Z,6.45
2022-10-19T22:36:45.323Z,12.20
2022-10-19T22:39:14.994Z,7.57
2022-10-19T22:41:43.408Z,8.82
2022-10-19T22:44:11.953Z,9.30
2022-10-19T22:46:40.316Z,5.57
2022-10-19T22:51:42.567Z,7.00
2022-10-19T22:54:12.404Z,6.13
2022-10-19T22:56:41.292Z,8.70
2022-10-19T22:59:10.435Z,7.55
2022-10-19T23:01:39.462Z,5.15
2022-10-19T23:06:36.236Z,21.88
2022-10-19T23:09:05.254Z,6.38
2022-10-19T23:11:35.164Z,5.15
2022-10-19T23:14:03.532Z,6.07
2022-10-19T23:16:32.147Z,6.32
2022-10-19T23:19:00.589Z,4.82
2022-10-19T23:21:29.055Z,4.63
2022-10-19T23:23:57.448Z,7.35
2022-10-19T23:26:26.253Z,6.75
2022-10-19T23:28:56.114Z,9.10
2022-10-19T23:31:26.898Z,7.28
2022-10-19T23:33:55.978Z,9.75
2022-10-19T23:36:27.076Z,4.95
2022-10-19T23:38:56.758Z,6.32
2022-10-19T23:41:25.491Z,6.22
2022-10-19T23:43:55.532Z,6.70
2022-10-19T23:46:24.072Z,8.05
2022-10-19T23:48:52.510Z,7.60
2022-10-19T23:51:22.544Z,5.35
2022-10-19T23:53:53.001Z,5.38
2022-10-19T23:56:23.483Z,5.53
2022-10-19T23:58:52.061Z,3.40
